createdAt,value
2023-04-02T00:00:11.612Z,99838.33
2023-04-02T00:04:03.303Z,99843.63
2023-04-02T00:07:58.653Z,99845.91
2023-04-02T01:09:30.368Z,99919.73
2023-04-02T01:13:22.710Z,99920.87
2023-04-02T01:28:58.574Z,99939.51
2023-04-02T01:32:47.709Z,99946.23
2023-04-02T01:36:29.456Z,99953.58
2023-04-02T01:40:31.064Z,99959.70
2023-04-02T01:44:37.334Z,99967.02
2023-04-02T01:52:07.898Z,99978.06
2023-04-02T02:22:44.342Z,100024.66
2023-04-02T02:26:33.460Z,100035.63
2023-04-02T02:30:22.576Z,100040.91
2023-04-02T02:34:11.431Z,100042.52
2023-04-02T02:37:55.338Z,100052.23
2023-04-02T02:41:44.247Z,100056.70
2023-04-02T02:45:33.868Z,100057.23
2023-04-02T02:49:24.732Z,100063.23
2023-04-02T02:52:57.416Z,100063.39
2023-04-02T02:56:48.698Z,100065.79
2023-04-02T03:00:39.132Z,100071.10
2023-04-02T03:16:43.631Z,100093.79
2023-04-02T03:20:44.685Z,100097.45
2023-04-02T03:24:35.287Z,100107.98
2023-04-02T03:36:37.950Z,100120.89
2023-04-02T03:40:39.529Z,100129.89
2023-04-02T04:00:23.222Z,100167.88
2023-04-02T04:04:24.353Z,100174.11
2023-04-02T04:08:16.719Z,100181.55
2023-04-02T04:12:12.349Z,100190.36
2023-04-02T04:16:01.817Z,100192.46
2023-04-02T04:19:52.221Z,100201.45
2023-04-02T04:23:40.266Z,100210.77
2023-04-02T04:35:45.463Z,100232.81
2023-04-02T04:39:34.854Z,100239.73
2023-04-02T04:43:24.164Z,100250.44
2023-04-02T04:47:19.791Z,100255.27
2023-04-02T04:51:11.797Z,100257.52
2023-04-02T04:55:01.752Z,100263.73
2023-04-02T04:59:02.914Z,100268.02
2023-04-02T05:02:56.013Z,100275.61
2023-04-02T05:06:48.000Z,100277.17
2023-04-02T05:26:01.434Z,100316.35
2023-04-02T05:29:38.230Z,100319.98
2023-04-02T05:33:18.090Z,100323.27
2023-04-02T05:36:56.125Z,100326.38
2023-04-02T05:40:28.429Z,100337.80
2023-04-02T05:43:50.891Z,100342.99
2023-04-02T05:47:18.671Z,100345.23
2023-04-02T05:50:44.080Z,100356.12
2023-04-02T05:54:24.546Z,100364.93
2023-04-02T06:02:17.847Z,100372.89
2023-04-02T06:06:05.877Z,100387.20
2023-04-02T06:10:02.931Z,100393.77
2023-04-02T06:13:43.653Z,100402.59
2023-04-02T06:17:00.491Z,100402.41
2023-04-02T06:20:25.827Z,100409.16
2023-04-02T06:24:14.704Z,100415.41
2023-04-02T06:34:44.050Z,100425.29
2023-04-02T06:38:12.700Z,100427.89
2023-04-02T06:42:04.571Z,100435.50
2023-04-02T06:45:41.504Z,100440.52
2023-04-02T06:49:24.065Z,100443.98
2023-04-02T06:53:14.008Z,100450.73
2023-04-02T06:56:57.639Z,100455.71
2023-04-02T07:00:48.837Z,100462.60
2023-04-02T07:04:39.469Z,100469.67
2023-04-02T07:08:03.092Z,100474.30
2023-04-02T07:11:56.454Z,100475.32
2023-04-02T07:19:30.289Z,100489.79
2023-04-02T07:23:22.201Z,100494.27
2023-04-02T08:23:48.294Z,100592.77
2023-04-02T08:27:37.770Z,100602.82
2023-04-02T08:31:25.152Z,100611.13
2023-04-02T08:35:02.167Z,100614.79
2023-04-02T08:38:51.301Z,100613.73
2023-04-02T08:42:58.460Z,100620.10
2023-04-02T08:46:42.089Z,100618.84
2023-04-02T08:50:56.756Z,100622.26
2023-04-02T09:10:14.587Z,100632.80
2023-04-02T09:13:46.600Z,100639.46
2023-04-02T09:17:15.447Z,100645.30
2023-04-02T09:20:47.630Z,100651.48
2023-04-02T09:24:25.527Z,100652.24
2023-04-02T09:28:06.832Z,100660.88
2023-04-02T09:31:52.533Z,100665.40
2023-04-02T09:35:52.897Z,100669.92
2023-04-02T09:39:27.162Z,100675.81
2023-04-02T09:42:59.331Z,100681.95
2023-04-02T10:04:47.820Z,100723.64
2023-04-02T10:12:08.107Z,100734.42
2023-04-02T10:15:43.883Z,100738.80
2023-04-02T10:19:20.952Z,100742.99
2023-04-02T10:22:40.117Z,100744.93
2023-04-02T10:26:18.230Z,100749.08
2023-04-02T10:30:10.786Z,100753.89
2023-04-02T10:34:02.103Z,100761.35
2023-04-02T10:48:39.566Z,100779.30
2023-04-02T10:52:15.116Z,100779.02
2023-04-02T10:56:07.872Z,100786.35
2023-04-02T10:59:58.169Z,100791.39
2023-04-02T11:18:36.751Z,100804.02
2023-04-02T11:22:10.697Z,100808.52
2023-04-02T11:25:41.638Z,100810.73
2023-04-02T11:29:19.134Z,100814.92
2023-04-02T11:33:35.859Z,100817.88
2023-04-02T11:37:30.754Z,100821.48
2023-04-02T11:40:41.933Z,100828.38
2023-04-02T12:02:15.483Z,100846.95
2023-04-02T12:06:10.970Z,100850.40
2023-04-02T12:10:04.683Z,100856.67
2023-04-02T12:13:59.910Z,100858.41
2023-04-02T12:17:21.770Z,100863.25
2023-04-02T12:21:00.115Z,100867.91
2023-04-02T12:24:17.215Z,100873.40
2023-04-02T12:27:56.866Z,100878.85
2023-04-02T12:34:35.097Z,100878.65
2023-04-02T12:37:53.250Z,100878.73
2023-04-02T12:41:08.310Z,100882.96
2023-04-02T12:44:21.442Z,100887.20
2023-04-02T12:47:28.695Z,100892.65
2023-04-02T12:50:34.325Z,100894.43
2023-04-02T12:53:54.056Z,100892.48
2023-04-02T12:57:08.045Z,100894.52
2023-04-02T13:00:06.545Z,100895.06
2023-04-02T13:03:39.623Z,100896.95
2023-04-02T13:06:47.866Z,100898.63
2023-04-02T13:10:10.441Z,100903.79
2023-04-02T13:13:12.511Z,100903.41
2023-04-02T13:16:20.843Z,100905.45
2023-04-02T13:19:10.708Z,100909.09
2023-04-02T13:22:11.436Z,100912.67
2023-04-02T13:24:56.502Z,100915.02
2023-04-02T13:27:38.411Z,100915.66
2023-04-02T13:31:01.129Z,100912.66
2023-04-02T13:34:00.147Z,100918.69
2023-04-02T13:36:49.205Z,100922.46
2023-04-02T13:39:31.818Z,100924.36
2023-04-02T13:42:34.600Z,100921.77
2023-04-02T13:45:45.318Z,100925.40
2023-04-02T13:48:34.939Z,100928.36
2023-04-02T13:51:37.042Z,100932.20
2023-04-02T13:55:07.018Z,100933.61
2023-04-02T13:58:19.231Z,100935.68
2023-04-02T14:01:23.687Z,100937.08
2023-04-02T14:04:28.807Z,100942.33
2023-04-02T14:07:39.782Z,100945.99
2023-04-02T14:11:26.702Z,100946.72
2023-04-02T14:14:49.750Z,100948.67
2023-04-02T14:33:10.544Z,100975.34
2023-04-02T14:37:11.897Z,100985.26
2023-04-02T14:40:57.688Z,100988.38
2023-04-02T14:44:47.780Z,100994.45
2023-04-02T15:00:13.882Z,101004.86
2023-04-02T15:03:49.521Z,101006.82
2023-04-02T15:07:09.213Z,101005.80
2023-04-02T15:10:26.643Z,101010.85
2023-04-02T15:17:51.206Z,101019.52
2023-04-02T15:21:20.358Z,101024.06
2023-04-02T15:25:11.552Z,101030.33
2023-04-02T15:29:28.809Z,101037.09
2023-04-02T15:32:51.590Z,101038.50
2023-04-02T15:36:33.155Z,101045.13
2023-04-02T16:00:07.394Z,101063.70
2023-04-02T16:04:02.518Z,101067.18
2023-04-02T16:07:48.192Z,101069.23
2023-04-02T16:23:00.575Z,101080.82
2023-04-02T16:26:53.332Z,101085.16
2023-04-02T16:30:41.203Z,101089.67
2023-04-02T16:34:29.617Z,101095.92
2023-04-02T16:47:03.187Z,101110.84
2023-04-02T16:50:39.521Z,101113.95
2023-04-02T16:54:30.565Z,101116.57
2023-04-02T16:58:17.409Z,101122.83
2023-04-02T17:02:00.607Z,101125.27
2023-04-02T17:21:13.061Z,101149.23
2023-04-02T17:25:02.025Z,101153.92
2023-04-02T17:28:51.121Z,101164.86
2023-04-02T17:32:20.961Z,101167.29
2023-04-02T17:36:08.215Z,101172.48
2023-04-02T17:39:52.760Z,101177.35
2023-04-02T17:56:06.572Z,101196.09
2023-04-02T17:59:38.644Z,101202.68
2023-04-02T18:15:50.312Z,101224.70
2023-04-02T18:19:44.297Z,101230.95
2023-04-02T18:23:50.874Z,101244.80
2023-04-02T18:43:24.881Z,101273.20
2023-04-02T18:47:26.065Z,101276.66
2023-04-02T18:50:58.722Z,101281.50
2023-04-02T18:54:49.541Z,101289.64
2023-04-02T18:58:18.434Z,101294.98
2023-04-02T19:02:07.796Z,101298.64
2023-04-02T19:06:09.565Z,101306.76
2023-04-02T19:10:00.681Z,101320.94
2023-04-02T19:25:29.767Z,101341.59
2023-04-02T19:29:37.175Z,101350.70
2023-04-02T19:45:13.487Z,101373.65
2023-04-02T19:49:00.316Z,101375.13
2023-04-02T19:52:42.304Z,101380.59
2023-04-02T19:56:20.518Z,101393.30
2023-04-02T20:00:02.027Z,101396.33
2023-04-02T20:03:51.291Z,101399.35
2023-04-02T20:07:40.149Z,101403.58
2023-04-02T20:11:12.213Z,101407.65
2023-04-02T20:15:01.390Z,101414.48
2023-04-02T20:18:26.615Z,101421.97
2023-04-02T20:22:15.768Z,101425.72
2023-04-02T20:25:58.689Z,101438.59
2023-04-02T20:29:47.863Z,101441.95
2023-04-02T20:33:20.004Z,101446.70
2023-04-02T20:36:46.470Z,101457.98
2023-04-02T20:40:36.080Z,101461.00
2023-04-02T20:44:25.344Z,101471.28
2023-04-02T20:48:14.802Z,101478.09
2023-04-02T20:51:36.940Z,101483.19
2023-04-02T20:55:26.135Z,101484.70
2023-04-02T20:59:00.432Z,101487.39
2023-04-02T21:02:42.624Z,101485.79
2023-04-02T21:06:31.867Z,101489.85
2023-04-02T21:10:21.004Z,101490.80
2023-04-02T21:14:10.103Z,101494.50
2023-04-02T21:17:59.208Z,101494.90
2023-04-02T21:21:48.596Z,101499.46
2023-04-02T21:25:38.020Z,101496.97
2023-04-02T21:29:21.198Z,101499.45
2023-04-02T21:33:09.164Z,101501.59
2023-04-02T21:36:47.454Z,101501.46
2023-04-02T21:40:18.188Z,101504.47
2023-04-02T21:43:57.426Z,101512.11
2023-04-02T21:47:45.817Z,101510.79
2023-04-02T21:51:35.380Z,101514.50
2023-04-02T21:55:24.468Z,101519.73
2023-04-02T21:59:13.632Z,101529.63
2023-04-02T22:03:02.877Z,101539.36
2023-04-02T22:06:54.955Z,101541.22
2023-04-02T22:10:44.384Z,101550.97
2023-04-02T22:14:33.248Z,101552.97
2023-04-02T22:18:22.344Z,101550.64
2023-04-02T22:22:11.437Z,101553.28
2023-04-02T22:26:00.541Z,101564.19
2023-04-02T22:29:42.972Z,101569.27
2023-04-02T22:33:32.113Z,101573.34
2023-04-02T22:37:17.222Z,101577.20
2023-04-02T22:41:06.690Z,101575.90
2023-04-02T22:44:55.830Z,101575.08
2023-04-02T22:48:45.129Z,101576.52
2023-04-02T22:52:17.615Z,101577.70
2023-04-02T22:56:06.975Z,101581.68
2023-04-02T22:59:56.255Z,101585.80
2023-04-02T23:03:45.412Z,101586.86
2023-04-02T23:07:34.518Z,101588.95
2023-04-02T23:11:16.698Z,101593.55
2023-04-02T23:15:06.002Z,101595.13
2023-04-02T23:18:55.363Z,101598.77
2023-04-02T23:22:44.507Z,101598.46
2023-04-02T23:26:48.950Z,101600.37
2023-04-02T23:30:38.434Z,101603.69
2023-04-02T23:34:20.433Z,101605.74
2023-04-02T23:38:10.837Z,101606.23
2023-04-02T23:41:59.309Z,101607.59
2023-04-02T23:45:58.387Z,101607.54
